Uncorked — WDJ4013 — position and weather

sailwx.info

Track history (hours):
 
Tides and Currents Weather Stations Pressure Air Temp Water Temp Dewpoint Dewpoint Depression Visibility Wind Speed Wind Dir Waves Ship Positions

Uncorked

Owner: Pette, Gregory A, miramar, FL. More information available from US FCC via Universal Licensing System and Coast Guard Vessel Documentation Center.

Last reported at 2018-Jan-23 07:53 UTC. Time now 2018-Jan-23 08:03 UTC.
Position N 26°13' W 080°06'.

Length 15 m.

Type: Pleasure craft. MMSI: 367773560.

Date/timePositionNaut miles runAvg speedWind from/ knotsBaromVisibWave heightAir tempDewpointWater temp
2018-Jan-23 07:53N 26°13' W 080°06'0 0.0
2018-Jan-23 07:23N 26°13' W 080°06'0 0.0
2018-Jan-23 06:53N 26°13' W 080°06'0 0.0
2018-Jan-23 05:58N 26°13' W 080°06'0 0.0
2018-Jan-23 05:28N 26°13' W 080°06'0 0.0
2018-Jan-23 04:58N 26°13' W 080°06'0 0.0
2018-Jan-23 03:10N 26°13' W 080°06'0 0.0
2018-Jan-23 02:56N 26°13' W 080°06'0 0.0
2018-Jan-23 00:07N 26°13' W 080°06'0 0.0
2018-Jan-22 23:37N 26°13' W 080°06'0 0.0
2018-Jan-22 22:37N 26°13' W 080°06'0 0.0
2018-Jan-22 22:19N 26°13' W 080°06'0 0.0
2018-Jan-22 21:49N 26°13' W 080°06'0 0.0
2018-Jan-22 20:37N 26°13' W 080°06'0 0.0
2018-Jan-22 17:07N 26°13' W 080°06'0 0.0
2018-Jan-22 16:37N 26°13' W 080°06'0 0.0
2018-Jan-22 10:23N 26°13' W 080°06'0 0.0
2018-Jan-22 08:41N 26°13' W 080°06'0 0.0
2018-Jan-22 08:11N 26°13' W 080°06'0 0.0
2018-Jan-22 05:59N 26°13' W 080°06'0 0.0
2018-Jan-21 01:29N 26°13' W 080°06'2 0.7
2018-Jan-20 23:01N 26°11' W 080°06'0 0.1
2018-Jan-20 22:56N 26°11' W 080°06'3 5.4
2018-Jan-20 22:27N 26°14' W 080°06'1 2.4
2018-Jan-20 21:52N 26°15' W 080°05'1 1.6
2018-Jan-20 21:22N 26°16' W 080°05'2 4.3
2018-Jan-20 20:58N 26°14' W 080°06'1 0.1
2018-Jan-20 14:35N 26°13' W 080°06'0 0.0
2018-Jan-20 14:05N 26°13' W 080°06'0 0.0
2018-Jan-20 13:05N 26°13' W 080°06'0 0.0
2018-Jan-20 12:41N 26°13' W 080°06'0 0.0
2018-Jan-20 12:23N 26°13' W 080°06'0 0.0
2018-Jan-20 11:53N 26°13' W 080°06'0 0.0
2018-Jan-20 08:29N 26°13' W 080°06'0 0.0
2018-Jan-20 07:59N 26°13' W 080°06'0 0.0
2018-Jan-20 07:29N 26°13' W 080°06'0 0.0
2018-Jan-20 06:59N 26°13' W 080°06'0 0.0
2018-Jan-20 04:17N 26°13' W 080°06'0 0.0
2018-Jan-20 02:59N 26°13' W 080°06'0 0.0
2018-Jan-20 02:17N 26°13' W 080°06'0 0.0
2018-Jan-20 01:47N 26°13' W 080°06'0 0.0
2018-Jan-20 01:23N 26°13' W 080°06'0 0.0
2018-Jan-20 00:47N 26°13' W 080°06'0 0.0
2018-Jan-19 22:53N 26°13' W 080°06'0 0.0
2018-Jan-19 22:26N 26°13' W 080°06'0 0.0
2018-Jan-19 20:36N 26°13' W 080°06'0 0.0
2018-Jan-19 20:30N 26°13' W 080°06'0 0.0
2018-Jan-19 18:48N 26°13' W 080°06'0 0.0
2018-Jan-19 13:42N 26°13' W 080°06'0 0.0
2018-Jan-19 12:28N 26°13' W 080°06'0 0.0
2018-Jan-19 11:58N 26°13' W 080°06'0 0.0
2018-Jan-19 11:04N 26°13' W 080°06'0 0.0
2018-Jan-19 10:46N 26°13' W 080°06'0 0.0
2018-Jan-19 10:26N 26°13' W 080°06'0 0.0
2018-Jan-19 09:59N 26°13' W 080°06'0 0.0
2018-Jan-19 09:26N 26°13' W 080°06'0 0.0
2018-Jan-19 08:44N 26°13' W 080°06'0 0.0
2018-Jan-19 08:26N 26°13' W 080°06'0 0.0
2018-Jan-19 07:56N 26°13' W 080°06'0 0.0
2018-Jan-19 07:14N 26°13' W 080°06'0 0.0
2018-Jan-19 06:44N 26°13' W 080°06'0 0.0
2018-Jan-19 06:26N 26°13' W 080°06'0 0.0
2018-Jan-19 05:56N 26°13' W 080°06'0 0.0
2018-Jan-19 05:26N 26°13' W 080°06'0 0.0
2018-Jan-19 04:56N 26°13' W 080°06'0 0.0
2018-Jan-19 04:26N 26°13' W 080°06'0 0.0
2018-Jan-19 03:38N 26°13' W 080°06'0 0.0
2018-Jan-19 03:26N 26°13' W 080°06'0 0.0
2018-Jan-19 02:56N 26°13' W 080°06'0 0.0
2018-Jan-19 02:26N 26°13' W 080°06'0 0.0
2018-Jan-19 01:56N 26°13' W 080°06'0 0.0
2018-Jan-19 01:26N 26°13' W 080°06'0 0.0
2018-Jan-19 00:56N 26°13' W 080°06'0 0.0
2018-Jan-19 00:26N 26°13' W 080°06'0 0.0
2018-Jan-18 23:44N 26°13' W 080°06'0 0.0
2018-Jan-18 23:02N 26°13' W 080°06'0 0.0
2018-Jan-18 22:44N 26°13' W 080°06'0 0.0
2018-Jan-18 22:14N 26°13' W 080°06'0 0.0
2018-Jan-18 21:59N 26°13' W 080°06'0 0.0
2018-Jan-18 21:20N 26°13' W 080°06'0 0.0
2018-Jan-18 20:50N 26°13' W 080°06'0 0.0
2018-Jan-18 20:20N 26°13' W 080°06'0 0.0
2018-Jan-18 19:50N 26°13' W 080°06'0 0.0
2018-Jan-18 19:02N 26°13' W 080°06'0 0.0
2018-Jan-18 18:38N 26°13' W 080°06'0 0.0
2018-Jan-18 17:53N 26°13' W 080°06'0 0.0
2018-Jan-18 17:02N 26°13' W 080°06'0 0.0
2018-Jan-18 16:08N 26°13' W 080°06'0 0.0
2018-Jan-18 15:38N 26°13' W 080°06'0 0.0
2018-Jan-18 15:30N 26°13' W 080°06'0 0.0
2018-Jan-18 14:37N 26°13' W 080°06'0 0.0
2018-Jan-18 14:19N 26°13' W 080°06'0 0.0
2018-Jan-18 13:49N 26°13' W 080°06'0 0.0
2018-Jan-18 13:19N 26°13' W 080°06'0 0.0
2018-Jan-18 12:49N 26°13' W 080°06'0 0.0
2018-Jan-18 12:19N 26°13' W 080°06'0 0.0
2018-Jan-18 11:37N 26°13' W 080°06'0 0.0
2018-Jan-18 11:25N 26°13' W 080°06'0 0.0
2018-Jan-18 10:55N 26°13' W 080°06'0 0.0
2018-Jan-18 10:25N 26°13' W 080°06'0 0.0
2018-Jan-18 09:55N 26°13' W 080°06'0 0.0
2018-Jan-18 09:25N 26°13' W 080°06'0 0.0
2018-Jan-18 08:54N 26°13' W 080°06'0 0.0
2018-Jan-18 07:54N 26°13' W 080°06'0 0.0
2018-Jan-18 07:24N 26°13' W 080°06'0 0.0
2018-Jan-18 06:42N 26°13' W 080°06'0 0.0
2018-Jan-18 06:24N 26°13' W 080°06'0 0.0
2018-Jan-18 05:24N 26°13' W 080°06'0 0.0
2018-Jan-18 04:54N 26°13' W 080°06'0 0.0
2018-Jan-18 04:12N 26°13' W 080°06'0 0.0
2018-Jan-18 03:54N 26°13' W 080°06'0 0.0
2018-Jan-18 03:30N 26°13' W 080°06'0 0.0
2018-Jan-18 03:00N 26°13' W 080°06'0 0.0
2018-Jan-18 02:25N 26°13' W 080°06'0 0.0
2018-Jan-18 01:55N 26°13' W 080°06'0 0.0
2018-Jan-18 01:25N 26°13' W 080°06'0 0.0
2018-Jan-18 00:55N 26°13' W 080°06'  
Track history (hours):
 
Tides and Currents Weather Stations Pressure Air Temp Water Temp Dewpoint Dewpoint Depression Visibility Wind Speed Wind Dir Waves Ship Positions

Uncorked

Owner: Pette, Gregory A, miramar, FL. More information available from US FCC via Universal Licensing System and Coast Guard Vessel Documentation Center.

Last reported at 2018-Jan-23 07:53 UTC. Time now 2018-Jan-23 08:03 UTC.
Position N 26°13' W 080°06'.

Length 15 m.

Type: Pleasure craft. MMSI: 367773560.

Date/timePositionNaut miles runAvg speedWind from/ knotsBaromVisibWave heightAir tempDewpointWater temp
2018-Jan-23 07:53N 26°13' W 080°06'0 0.0
2018-Jan-23 07:23N 26°13' W 080°06'0 0.0
2018-Jan-23 06:53N 26°13' W 080°06'0 0.0
2018-Jan-23 05:58N 26°13' W 080°06'0 0.0
2018-Jan-23 05:28N 26°13' W 080°06'0 0.0
2018-Jan-23 04:58N 26°13' W 080°06'0 0.0
2018-Jan-23 03:10N 26°13' W 080°06'0 0.0
2018-Jan-23 02:56N 26°13' W 080°06'0 0.0
2018-Jan-23 00:07N 26°13' W 080°06'0 0.0
2018-Jan-22 23:37N 26°13' W 080°06'0 0.0
2018-Jan-22 22:37N 26°13' W 080°06'0 0.0
2018-Jan-22 22:19N 26°13' W 080°06'0 0.0
2018-Jan-22 21:49N 26°13' W 080°06'0 0.0
2018-Jan-22 20:37N 26°13' W 080°06'0 0.0
2018-Jan-22 17:07N 26°13' W 080°06'0 0.0
2018-Jan-22 16:37N 26°13' W 080°06'0 0.0
2018-Jan-22 10:23N 26°13' W 080°06'0 0.0
2018-Jan-22 08:41N 26°13' W 080°06'0 0.0
2018-Jan-22 08:11N 26°13' W 080°06'0 0.0
2018-Jan-22 05:59N 26°13' W 080°06'0 0.0
2018-Jan-21 01:29N 26°13' W 080°06'2 0.7
2018-Jan-20 23:01N 26°11' W 080°06'0 0.1
2018-Jan-20 22:56N 26°11' W 080°06'3 5.4
2018-Jan-20 22:27N 26°14' W 080°06'1 2.4
2018-Jan-20 21:52N 26°15' W 080°05'1 1.6
2018-Jan-20 21:22N 26°16' W 080°05'2 4.3
2018-Jan-20 20:58N 26°14' W 080°06'1 0.1
2018-Jan-20 14:35N 26°13' W 080°06'0 0.0
2018-Jan-20 14:05N 26°13' W 080°06'0 0.0
2018-Jan-20 13:05N 26°13' W 080°06'0 0.0
2018-Jan-20 12:41N 26°13' W 080°06'0 0.0
2018-Jan-20 12:23N 26°13' W 080°06'0 0.0
2018-Jan-20 11:53N 26°13' W 080°06'0 0.0
2018-Jan-20 08:29N 26°13' W 080°06'0 0.0
2018-Jan-20 07:59N 26°13' W 080°06'0 0.0
2018-Jan-20 07:29N 26°13' W 080°06'0 0.0
2018-Jan-20 06:59N 26°13' W 080°06'0 0.0
2018-Jan-20 04:17N 26°13' W 080°06'0 0.0
2018-Jan-20 02:59N 26°13' W 080°06'0 0.0
2018-Jan-20 02:17N 26°13' W 080°06'0 0.0
2018-Jan-20 01:47N 26°13' W 080°06'0 0.0
2018-Jan-20 01:23N 26°13' W 080°06'0 0.0
2018-Jan-20 00:47N 26°13' W 080°06'0 0.0
2018-Jan-19 22:53N 26°13' W 080°06'0 0.0
2018-Jan-19 22:26N 26°13' W 080°06'0 0.0
2018-Jan-19 20:36N 26°13' W 080°06'0 0.0
2018-Jan-19 20:30N 26°13' W 080°06'0 0.0
2018-Jan-19 18:48N 26°13' W 080°06'0 0.0
2018-Jan-19 13:42N 26°13' W 080°06'0 0.0
2018-Jan-19 12:28N 26°13' W 080°06'0 0.0
2018-Jan-19 11:58N 26°13' W 080°06'0 0.0
2018-Jan-19 11:04N 26°13' W 080°06'0 0.0
2018-Jan-19 10:46N 26°13' W 080°06'0 0.0
2018-Jan-19 10:26N 26°13' W 080°06'0 0.0
2018-Jan-19 09:59N 26°13' W 080°06'0 0.0
2018-Jan-19 09:26N 26°13' W 080°06'0 0.0
2018-Jan-19 08:44N 26°13' W 080°06'0 0.0
2018-Jan-19 08:26N 26°13' W 080°06'0 0.0
2018-Jan-19 07:56N 26°13' W 080°06'0 0.0
2018-Jan-19 07:14N 26°13' W 080°06'0 0.0
2018-Jan-19 06:44N 26°13' W 080°06'0 0.0
2018-Jan-19 06:26N 26°13' W 080°06'0 0.0
2018-Jan-19 05:56N 26°13' W 080°06'0 0.0
2018-Jan-19 05:26N 26°13' W 080°06'0 0.0
2018-Jan-19 04:56N 26°13' W 080°06'0 0.0
2018-Jan-19 04:26N 26°13' W 080°06'0 0.0
2018-Jan-19 03:38N 26°13' W 080°06'0 0.0
2018-Jan-19 03:26N 26°13' W 080°06'0 0.0
2018-Jan-19 02:56N 26°13' W 080°06'0 0.0
2018-Jan-19 02:26N 26°13' W 080°06'0 0.0
2018-Jan-19 01:56N 26°13' W 080°06'0 0.0
2018-Jan-19 01:26N 26°13' W 080°06'0 0.0
2018-Jan-19 00:56N 26°13' W 080°06'0 0.0
2018-Jan-19 00:26N 26°13' W 080°06'0 0.0
2018-Jan-18 23:44N 26°13' W 080°06'0 0.0
2018-Jan-18 23:02N 26°13' W 080°06'0 0.0
2018-Jan-18 22:44N 26°13' W 080°06'0 0.0
2018-Jan-18 22:14N 26°13' W 080°06'0 0.0
2018-Jan-18 21:59N 26°13' W 080°06'0 0.0
2018-Jan-18 21:20N 26°13' W 080°06'0 0.0
2018-Jan-18 20:50N 26°13' W 080°06'0 0.0
2018-Jan-18 20:20N 26°13' W 080°06'0 0.0
2018-Jan-18 19:50N 26°13' W 080°06'0 0.0
2018-Jan-18 19:02N 26°13' W 080°06'0 0.0
2018-Jan-18 18:38N 26°13' W 080°06'0 0.0
2018-Jan-18 17:53N 26°13' W 080°06'0 0.0
2018-Jan-18 17:02N 26°13' W 080°06'0 0.0
2018-Jan-18 16:08N 26°13' W 080°06'0 0.0
2018-Jan-18 15:38N 26°13' W 080°06'0 0.0
2018-Jan-18 15:30N 26°13' W 080°06'0 0.0
2018-Jan-18 14:37N 26°13' W 080°06'0 0.0
2018-Jan-18 14:19N 26°13' W 080°06'0 0.0
2018-Jan-18 13:49N 26°13' W 080°06'0 0.0
2018-Jan-18 13:19N 26°13' W 080°06'0 0.0
2018-Jan-18 12:49N 26°13' W 080°06'0 0.0
2018-Jan-18 12:19N 26°13' W 080°06'0 0.0
2018-Jan-18 11:37N 26°13' W 080°06'0 0.0
2018-Jan-18 11:25N 26°13' W 080°06'0 0.0
2018-Jan-18 10:55N 26°13' W 080°06'0 0.0
2018-Jan-18 10:25N 26°13' W 080°06'0 0.0
2018-Jan-18 09:55N 26°13' W 080°06'0 0.0
2018-Jan-18 09:25N 26°13' W 080°06'0 0.0
2018-Jan-18 08:54N 26°13' W 080°06'0 0.0
2018-Jan-18 07:54N 26°13' W 080°06'0 0.0
2018-Jan-18 07:24N 26°13' W 080°06'0 0.0
2018-Jan-18 06:42N 26°13' W 080°06'0 0.0
2018-Jan-18 06:24N 26°13' W 080°06'0 0.0
2018-Jan-18 05:24N 26°13' W 080°06'0 0.0
2018-Jan-18 04:54N 26°13' W 080°06'0 0.0
2018-Jan-18 04:12N 26°13' W 080°06'0 0.0
2018-Jan-18 03:54N 26°13' W 080°06'0 0.0
2018-Jan-18 03:30N 26°13' W 080°06'0 0.0
2018-Jan-18 03:00N 26°13' W 080°06'0 0.0
2018-Jan-18 02:25N 26°13' W 080°06'0 0.0
2018-Jan-18 01:55N 26°13' W 080°06'0 0.0
2018-Jan-18 01:25N 26°13' W 080°06'0 0.0
2018-Jan-18 00:55N 26°13' W 080°06'  

Dump ship's entire track history